Airfield :
LOGIN :

Register | Disclaimer

   EN    FR    IT 

 










Legend :    VFR   Marginal VFR   IFR   Intensive IFR   Very Intensive IFR
Visi :
Ceiling :
>= 8 km
>= 3000ft
5 to 8 km
1000 to 3000 ft
1500m to 5 km
500 to 1000 ft
800 to 1500m
200 to 500 ft
< 800m
< 200 ft
Symbols :   Thunderstorms  Fog  Heavy snow  Heavy precipitations  Wind > 20 kt
SIGMETs :     Misc.  Thunderstorms  Icing  Turbulence  Mountain Waves  Volcanic Ashes







- Airport Elevation : 404 ft
- IATA code : WRO


EPWR - Wroclaw

CURRENT METAR :
  • 200830Z VRB01KT 3000 BR NSC M06/M07 Q1018

EXPIRED METARs :
  • 200800Z 04002KT 2800 BR NSC M08/M09 Q1018
  • 200730Z VRB01KT 2500 MIFG BR NSC M08/M10 Q1018
  • 200700Z VRB01KT 2900 BR NSC M08/M10 Q1017
  • 200630Z VRB01KT 2900 BR NSC M08/M09 Q1017
  • 200600Z 04002KT 2600 BR NSC M08/M10 Q1017

TAF TAF EPWR
Valid from the 20 at 09:00 until the 21 at 09:00 UTC


200830Z 2009/2109 VRB02KT 3000 BR NSC
BECMG 2009/2011 7000
BECMG 2018/2020 2000 BR
PROB40
TEMPO 2018/2107 0600 FZFG BKN006
BECMG 2107/2109 6000
No reported NOTAMs for that airfield.



MET'MAP, your aeronautical weather chart ! - Copyright ORBIFLY December 2007 - Disclaimer

ORBIFLY MET'MAP TEAM :

Programming & Development : Alexandra Zaïnal
Concept & Development : Baudouin d'Aumeries
Co-Development & Prog : Marc-Olivier Méhu
Technical & hardware support : Manuel Goepfert

Contact : metmap@orbifly.com




SOURCES & CREDITS :

   NOAA